sensor_id;sensor_type;location;lat;lon;timestamp;temperature;humidity
47338;DHT22;33069;51.970;5.892;2023-08-06T00:00:33;16.10;84.10
47338;DHT22;33069;51.970;5.892;2023-08-06T00:03:19;16.10;84.00
47338;DHT22;33069;51.970;5.892;2023-08-06T00:06:05;16.20;84.00
47338;DHT22;33069;51.970;5.892;2023-08-06T00:08:52;16.20;84.00
47338;DHT22;33069;51.970;5.892;2023-08-06T00:11:37;16.20;84.10
47338;DHT22;33069;51.970;5.892;2023-08-06T00:14:23;16.20;84.10
47338;DHT22;33069;51.970;5.892;2023-08-06T00:17:09;16.20;84.10
47338;DHT22;33069;51.970;5.892;2023-08-06T00:19:55;16.20;84.20
47338;DHT22;33069;51.970;5.892;2023-08-06T00:22:41;16.20;84.30
47338;DHT22;33069;51.970;5.892;2023-08-06T00:25:27;16.20;84.40
47338;DHT22;33069;51.970;5.892;2023-08-06T00:28:13;16.20;84.60
47338;DHT22;33069;51.970;5.892;2023-08-06T00:30:59;16.10;84.70
47338;DHT22;33069;51.970;5.892;2023-08-06T00:33:45;16.20;84.90
47338;DHT22;33069;51.970;5.892;2023-08-06T00:36:31;16.20;85.00
47338;DHT22;33069;51.970;5.892;2023-08-06T00:39:17;16.10;85.10
47338;DHT22;33069;51.970;5.892;2023-08-06T00:42:04;15.90;85.20
47338;DHT22;33069;51.970;5.892;2023-08-06T00:44:50;16.00;85.50
47338;DHT22;33069;51.970;5.892;2023-08-06T00:47:36;16.00;85.60
47338;DHT22;33069;51.970;5.892;2023-08-06T00:50:22;15.90;85.60
47338;DHT22;33069;51.970;5.892;2023-08-06T00:53:08;15.90;85.80
47338;DHT22;33069;51.970;5.892;2023-08-06T00:55:54;15.90;86.00
47338;DHT22;33069;51.970;5.892;2023-08-06T00:58:41;15.90;86.20
47338;DHT22;33069;51.970;5.892;2023-08-06T01:01:27;16.00;86.20
47338;DHT22;33069;51.970;5.892;2023-08-06T01:04:13;15.90;86.30
47338;DHT22;33069;51.970;5.892;2023-08-06T01:10:28;15.80;86.40
47338;DHT22;33069;51.970;5.892;2023-08-06T01:16:09;15.80;86.90
47338;DHT22;33069;51.970;5.892;2023-08-06T01:18:55;15.70;87.00
47338;DHT22;33069;51.970;5.892;2023-08-06T01:21:43;15.70;87.30
47338;DHT22;33069;51.970;5.892;2023-08-06T01:24:29;15.70;87.50
47338;DHT22;33069;51.970;5.892;2023-08-06T01:30:27;15.60;87.80
47338;DHT22;33069;51.970;5.892;2023-08-06T01:33:16;15.60;88.00
47338;DHT22;33069;51.970;5.892;2023-08-06T01:36:06;15.60;88.00
47338;DHT22;33069;51.970;5.892;2023-08-06T01:38:53;15.60;88.20
47338;DHT22;33069;51.970;5.892;2023-08-06T01:41:39;15.60;88.40
47338;DHT22;33069;51.970;5.892;2023-08-06T01:44:25;15.60;88.40
47338;DHT22;33069;51.970;5.892;2023-08-06T01:47:11;15.50;88.40
47338;DHT22;33069;51.970;5.892;2023-08-06T01:49:57;15.50;88.50
47338;DHT22;33069;51.970;5.892;2023-08-06T01:52:43;15.50;88.60
47338;DHT22;33069;51.970;5.892;2023-08-06T01:55:29;15.70;88.60
47338;DHT22;33069;51.970;5.892;2023-08-06T01:58:16;15.60;88.60
47338;DHT22;33069;51.970;5.892;2023-08-06T02:01:02;15.60;88.50
47338;DHT22;33069;51.970;5.892;2023-08-06T02:03:48;15.50;88.60
47338;DHT22;33069;51.970;5.892;2023-08-06T02:06:34;15.60;88.60
47338;DHT22;33069;51.970;5.892;2023-08-06T02:09:20;15.70;88.70
47338;DHT22;33069;51.970;5.892;2023-08-06T02:12:06;15.60;88.50
47338;DHT22;33069;51.970;5.892;2023-08-06T02:14:52;15.60;88.60
47338;DHT22;33069;51.970;5.892;2023-08-06T02:17:38;15.60;88.60
47338;DHT22;33069;51.970;5.892;2023-08-06T02:20:24;15.50;88.60
47338;DHT22;33069;51.970;5.892;2023-08-06T02:23:10;15.50;88.60
47338;DHT22;33069;51.970;5.892;2023-08-06T02:26:01;15.40;88.60
47338;DHT22;33069;51.970;5.892;2023-08-06T02:28:47;15.50;88.80
47338;DHT22;33069;51.970;5.892;2023-08-06T02:31:33;15.50;88.90
47338;DHT22;33069;51.970;5.892;2023-08-06T02:34:19;15.60;88.90
47338;DHT22;33069;51.970;5.892;2023-08-06T02:37:05;15.50;88.80
47338;DHT22;33069;51.970;5.892;2023-08-06T02:39:51;15.50;88.80
47338;DHT22;33069;51.970;5.892;2023-08-06T02:42:37;15.50;88.80
47338;DHT22;33069;51.970;5.892;2023-08-06T02:45:23;15.50;88.90
47338;DHT22;33069;51.970;5.892;2023-08-06T02:48:09;15.60;88.90
47338;DHT22;33069;51.970;5.892;2023-08-06T02:50:59;15.50;88.80
47338;DHT22;33069;51.970;5.892;2023-08-06T02:53:45;15.60;88.80
47338;DHT22;33069;51.970;5.892;2023-08-06T02:56:31;15.60;88.80
47338;DHT22;33069;51.970;5.892;2023-08-06T02:59:17;15.60;88.70
47338;DHT22;33069;51.970;5.892;2023-08-06T03:02:03;15.60;88.70
47338;DHT22;33069;51.970;5.892;2023-08-06T03:04:49;15.60;88.70
47338;DHT22;33069;51.970;5.892;2023-08-06T03:07:35;15.50;88.60
47338;DHT22;33069;51.970;5.892;2023-08-06T03:10:23;15.50;88.70
47338;DHT22;33069;51.970;5.892;2023-08-06T03:13:09;15.50;88.80
47338;DHT22;33069;51.970;5.892;2023-08-06T03:15:57;15.40;88.80
47338;DHT22;33069;51.970;5.892;2023-08-06T03:18:43;15.50;89.00
47338;DHT22;33069;51.970;5.892;2023-08-06T03:21:29;15.50;89.10
47338;DHT22;33069;51.970;5.892;2023-08-06T03:24:15;15.50;89.10
47338;DHT22;33069;51.970;5.892;2023-08-06T03:27:01;15.50;89.00
47338;DHT22;33069;51.970;5.892;2023-08-06T03:29:49;15.60;89.10
47338;DHT22;33069;51.970;5.892;2023-08-06T03:32:36;15.60;89.10
47338;DHT22;33069;51.970;5.892;2023-08-06T03:35:22;15.50;89.10
47338;DHT22;33069;51.970;5.892;2023-08-06T03:38:08;15.50;89.00
47338;DHT22;33069;51.970;5.892;2023-08-06T03:40:54;15.60;89.10
47338;DHT22;33069;51.970;5.892;2023-08-06T03:43:40;15.60;89.00
47338;DHT22;33069;51.970;5.892;2023-08-06T03:46:26;15.70;89.00
47338;DHT22;33069;51.970;5.892;2023-08-06T03:49:11;15.70;89.00
47338;DHT22;33069;51.970;5.892;2023-08-06T03:51:58;15.60;88.80
47338;DHT22;33069;51.970;5.892;2023-08-06T03:54:44;15.70;88.90
47338;DHT22;33069;51.970;5.892;2023-08-06T03:57:30;15.70;88.80
47338;DHT22;33069;51.970;5.892;2023-08-06T04:00:16;15.50;88.70
47338;DHT22;33069;51.970;5.892;2023-08-06T04:03:02;15.50;88.80
47338;DHT22;33069;51.970;5.892;2023-08-06T04:05:48;15.50;88.90
47338;DHT22;33069;51.970;5.892;2023-08-06T04:08:34;15.50;89.00
47338;DHT22;33069;51.970;5.892;2023-08-06T04:11:20;15.50;88.90
47338;DHT22;33069;51.970;5.892;2023-08-06T04:14:06;15.40;89.00
47338;DHT22;33069;51.970;5.892;2023-08-06T04:16:52;15.50;89.20
47338;DHT22;33069;51.970;5.892;2023-08-06T04:19:38;15.40;89.10
47338;DHT22;33069;51.970;5.892;2023-08-06T04:22:24;15.50;89.20
47338;DHT22;33069;51.970;5.892;2023-08-06T04:25:10;15.50;89.10
47338;DHT22;33069;51.970;5.892;2023-08-06T04:27:56;15.40;89.10
47338;DHT22;33069;51.970;5.892;2023-08-06T04:30:42;15.50;89.30
47338;DHT22;33069;51.970;5.892;2023-08-06T04:33:28;15.40;89.20
47338;DHT22;33069;51.970;5.892;2023-08-06T04:36:14;15.50;89.30
47338;DHT22;33069;51.970;5.892;2023-08-06T04:39:00;15.50;89.30
47338;DHT22;33069;51.970;5.892;2023-08-06T04:41:46;15.60;89.30
47338;DHT22;33069;51.970;5.892;2023-08-06T04:44:32;15.60;89.30
47338;DHT22;33069;51.970;5.892;2023-08-06T04:47:18;15.70;89.30
47338;DHT22;33069;51.970;5.892;2023-08-06T04:50:04;15.70;89.10
47338;DHT22;33069;51.970;5.892;2023-08-06T04:52:50;15.70;89.00
47338;DHT22;33069;51.970;5.892;2023-08-06T04:55:36;15.70;89.00
47338;DHT22;33069;51.970;5.892;2023-08-06T04:58:22;15.70;88.90
47338;DHT22;33069;51.970;5.892;2023-08-06T05:01:08;15.70;88.90
47338;DHT22;33069;51.970;5.892;2023-08-06T05:03:54;15.80;88.90
47338;DHT22;33069;51.970;5.892;2023-08-06T05:06:40;15.90;88.90
47338;DHT22;33069;51.970;5.892;2023-08-06T05:09:27;16.00;88.80
47338;DHT22;33069;51.970;5.892;2023-08-06T05:12:12;16.00;88.70
47338;DHT22;33069;51.970;5.892;2023-08-06T05:14:58;16.00;88.50
47338;DHT22;33069;51.970;5.892;2023-08-06T05:17:44;16.20;88.40
47338;DHT22;33069;51.970;5.892;2023-08-06T05:20:30;16.30;88.20
47338;DHT22;33069;51.970;5.892;2023-08-06T05:23:16;16.30;88.00
47338;DHT22;33069;51.970;5.892;2023-08-06T05:26:02;16.30;87.70
47338;DHT22;33069;51.970;5.892;2023-08-06T05:28:48;16.30;87.50
47338;DHT22;33069;51.970;5.892;2023-08-06T05:31:34;16.30;87.30
47338;DHT22;33069;51.970;5.892;2023-08-06T05:34:20;16.30;87.10
47338;DHT22;33069;51.970;5.892;2023-08-06T05:37:06;16.40;87.30
47338;DHT22;33069;51.970;5.892;2023-08-06T05:39:52;16.20;87.00
47338;DHT22;33069;51.970;5.892;2023-08-06T05:42:38;16.30;86.90
47338;DHT22;33069;51.970;5.892;2023-08-06T05:45:24;16.40;87.10
47338;DHT22;33069;51.970;5.892;2023-08-06T05:48:10;16.30;86.50
47338;DHT22;33069;51.970;5.892;2023-08-06T05:50:56;16.30;86.60
47338;DHT22;33069;51.970;5.892;2023-08-06T05:53:42;16.10;86.70
47338;DHT22;33069;51.970;5.892;2023-08-06T05:56:28;16.00;86.70
47338;DHT22;33069;51.970;5.892;2023-08-06T05:59:14;15.90;86.90
47338;DHT22;33069;51.970;5.892;2023-08-06T06:02:00;16.00;87.20
47338;DHT22;33069;51.970;5.892;2023-08-06T06:04:46;16.00;87.20
47338;DHT22;33069;51.970;5.892;2023-08-06T06:07:32;16.10;87.30
47338;DHT22;33069;51.970;5.892;2023-08-06T06:10:18;16.20;87.20
47338;DHT22;33069;51.970;5.892;2023-08-06T06:13:04;16.30;87.10
47338;DHT22;33069;51.970;5.892;2023-08-06T06:15:50;16.10;86.80
47338;DHT22;33069;51.970;5.892;2023-08-06T06:18:39;15.90;86.90
47338;DHT22;33069;51.970;5.892;2023-08-06T06:21:25;15.80;87.30
47338;DHT22;33069;51.970;5.892;2023-08-06T06:24:11;15.80;87.30
47338;DHT22;33069;51.970;5.892;2023-08-06T06:26:57;15.80;87.50
47338;DHT22;33069;51.970;5.892;2023-08-06T06:29:43;15.80;87.50
47338;DHT22;33069;51.970;5.892;2023-08-06T06:32:29;15.90;87.70
47338;DHT22;33069;51.970;5.892;2023-08-06T06:35:15;16.00;87.50
47338;DHT22;33069;51.970;5.892;2023-08-06T06:38:01;16.10;87.50
47338;DHT22;33069;51.970;5.892;2023-08-06T06:40:57;16.20;87.20
47338;DHT22;33069;51.970;5.892;2023-08-06T06:43:43;16.20;86.90
47338;DHT22;33069;51.970;5.892;2023-08-06T06:46:29;16.20;86.60
47338;DHT22;33069;51.970;5.892;2023-08-06T06:49:15;16.10;86.60
47338;DHT22;33069;51.970;5.892;2023-08-06T06:52:01;16.00;87.00
47338;DHT22;33069;51.970;5.892;2023-08-06T06:54:47;16.10;87.10
47338;DHT22;33069;51.970;5.892;2023-08-06T06:57:33;15.90;87.40
47338;DHT22;33069;51.970;5.892;2023-08-06T07:00:19;15.80;87.60
47338;DHT22;33069;51.970;5.892;2023-08-06T07:03:05;15.70;87.50
47338;DHT22;33069;51.970;5.892;2023-08-06T07:05:51;15.70;87.60
47338;DHT22;33069;51.970;5.892;2023-08-06T07:08:37;15.80;87.80
47338;DHT22;33069;51.970;5.892;2023-08-06T07:11:23;15.90;87.70
47338;DHT22;33069;51.970;5.892;2023-08-06T07:14:09;15.80;87.60
47338;DHT22;33069;51.970;5.892;2023-08-06T07:16:55;15.80;87.50
47338;DHT22;33069;51.970;5.892;2023-08-06T07:19:41;15.90;87.70
47338;DHT22;33069;51.970;5.892;2023-08-06T07:22:27;15.90;87.80
47338;DHT22;33069;51.970;5.892;2023-08-06T07:25:13;15.90;87.60
47338;DHT22;33069;51.970;5.892;2023-08-06T07:27:59;15.80;87.50
47338;DHT22;33069;51.970;5.892;2023-08-06T07:30:47;15.90;87.60
47338;DHT22;33069;51.970;5.892;2023-08-06T07:33:33;15.80;87.70
47338;DHT22;33069;51.970;5.892;2023-08-06T07:36:20;15.70;87.80
47338;DHT22;33069;51.970;5.892;2023-08-06T07:39:06;15.90;88.10
47338;DHT22;33069;51.970;5.892;2023-08-06T07:41:52;15.80;87.80
47338;DHT22;33069;51.970;5.892;2023-08-06T07:44:38;15.80;87.90
47338;DHT22;33069;51.970;5.892;2023-08-06T07:47:25;15.70;88.10
47338;DHT22;33069;51.970;5.892;2023-08-06T07:50:11;15.70;88.40
47338;DHT22;33069;51.970;5.892;2023-08-06T07:52:56;15.90;88.60
47338;DHT22;33069;51.970;5.892;2023-08-06T07:55:42;15.90;88.50
47338;DHT22;33069;51.970;5.892;2023-08-06T07:58:28;16.00;88.70
47338;DHT22;33069;51.970;5.892;2023-08-06T08:01:15;16.00;88.70
47338;DHT22;33069;51.970;5.892;2023-08-06T08:04:01;16.10;88.70
47338;DHT22;33069;51.970;5.892;2023-08-06T08:06:47;16.20;88.60
47338;DHT22;33069;51.970;5.892;2023-08-06T08:09:34;16.20;88.30
47338;DHT22;33069;51.970;5.892;2023-08-06T08:12:21;16.20;88.10
47338;DHT22;33069;51.970;5.892;2023-08-06T08:15:07;16.30;88.40
47338;DHT22;33069;51.970;5.892;2023-08-06T08:17:53;16.40;88.20
47338;DHT22;33069;51.970;5.892;2023-08-06T08:20:39;16.40;87.90
47338;DHT22;33069;51.970;5.892;2023-08-06T08:23:25;16.30;87.10
47338;DHT22;33069;51.970;5.892;2023-08-06T08:26:11;16.50;87.30
47338;DHT22;33069;51.970;5.892;2023-08-06T08:28:57;16.60;87.30
47338;DHT22;33069;51.970;5.892;2023-08-06T08:31:43;16.40;86.20
47338;DHT22;33069;51.970;5.892;2023-08-06T08:34:30;16.40;86.30
47338;DHT22;33069;51.970;5.892;2023-08-06T08:37:16;16.50;85.60
47338;DHT22;33069;51.970;5.892;2023-08-06T08:40:02;16.70;86.00
47338;DHT22;33069;51.970;5.892;2023-08-06T08:42:49;16.80;85.90
47338;DHT22;33069;51.970;5.892;2023-08-06T08:45:39;16.90;85.10
47338;DHT22;33069;51.970;5.892;2023-08-06T08:48:26;17.00;84.70
47338;DHT22;33069;51.970;5.892;2023-08-06T08:51:16;17.00;84.30
47338;DHT22;33069;51.970;5.892;2023-08-06T08:54:03;17.30;84.20
47338;DHT22;33069;51.970;5.892;2023-08-06T08:56:50;17.40;83.70
47338;DHT22;33069;51.970;5.892;2023-08-06T08:59:35;17.80;83.40
47338;DHT22;33069;51.970;5.892;2023-08-06T09:02:23;17.80;82.40
47338;DHT22;33069;51.970;5.892;2023-08-06T09:05:11;17.70;82.00
47338;DHT22;33069;51.970;5.892;2023-08-06T09:08:04;17.50;82.60
47338;DHT22;33069;51.970;5.892;2023-08-06T09:10:50;17.60;83.30
47338;DHT22;33069;51.970;5.892;2023-08-06T09:13:38;17.70;83.00
47338;DHT22;33069;51.970;5.892;2023-08-06T09:16:25;17.70;83.00
47338;DHT22;33069;51.970;5.892;2023-08-06T09:19:11;17.70;82.90
47338;DHT22;33069;51.970;5.892;2023-08-06T09:22:04;17.70;82.70
47338;DHT22;33069;51.970;5.892;2023-08-06T09:24:57;17.70;82.60
47338;DHT22;33069;51.970;5.892;2023-08-06T09:27:46;17.70;82.90
47338;DHT22;33069;51.970;5.892;2023-08-06T09:30:35;18.00;83.00
47338;DHT22;33069;51.970;5.892;2023-08-06T09:33:22;17.60;83.00
47338;DHT22;33069;51.970;5.892;2023-08-06T09:36:12;17.40;82.50
47338;DHT22;33069;51.970;5.892;2023-08-06T09:38:58;17.30;83.60
47338;DHT22;33069;51.970;5.892;2023-08-06T09:41:45;17.30;84.50
47338;DHT22;33069;51.970;5.892;2023-08-06T09:44:33;17.10;84.90
47338;DHT22;33069;51.970;5.892;2023-08-06T09:47:20;17.00;85.80
47338;DHT22;33069;51.970;5.892;2023-08-06T09:50:18;16.70;85.90
47338;DHT22;33069;51.970;5.892;2023-08-06T09:53:06;16.60;86.80
47338;DHT22;33069;51.970;5.892;2023-08-06T09:55:54;16.60;87.10
47338;DHT22;33069;51.970;5.892;2023-08-06T09:58:40;16.60;87.70
47338;DHT22;33069;51.970;5.892;2023-08-06T10:01:26;16.40;87.90
47338;DHT22;33069;51.970;5.892;2023-08-06T10:04:14;16.40;88.20
47338;DHT22;33069;51.970;5.892;2023-08-06T10:07:02;16.20;88.50
47338;DHT22;33069;51.970;5.892;2023-08-06T10:09:48;16.00;88.70
47338;DHT22;33069;51.970;5.892;2023-08-06T10:12:37;16.00;89.00
47338;DHT22;33069;51.970;5.892;2023-08-06T10:15:30;15.90;89.20
47338;DHT22;33069;51.970;5.892;2023-08-06T10:18:17;15.80;89.40
47338;DHT22;33069;51.970;5.892;2023-08-06T10:21:09;15.80;89.50
47338;DHT22;33069;51.970;5.892;2023-08-06T10:23:55;15.70;89.70
47338;DHT22;33069;51.970;5.892;2023-08-06T10:26:44;15.70;90.30
47338;DHT22;33069;51.970;5.892;2023-08-06T10:29:36;15.20;90.00
47338;DHT22;33069;51.970;5.892;2023-08-06T10:32:49;14.80;89.90
47338;DHT22;33069;51.970;5.892;2023-08-06T10:35:45;14.50;90.00
47338;DHT22;33069;51.970;5.892;2023-08-06T10:38:35;14.30;89.90
47338;DHT22;33069;51.970;5.892;2023-08-06T10:41:29;14.30;90.10
47338;DHT22;33069;51.970;5.892;2023-08-06T10:44:16;14.20;90.20
47338;DHT22;33069;51.970;5.892;2023-08-06T10:47:27;14.20;90.30
47338;DHT22;33069;51.970;5.892;2023-08-06T10:50:17;14.30;90.70
47338;DHT22;33069;51.970;5.892;2023-08-06T10:53:04;14.20;90.80
47338;DHT22;33069;51.970;5.892;2023-08-06T10:55:51;14.30;90.90
47338;DHT22;33069;51.970;5.892;2023-08-06T10:58:37;14.20;90.90
47338;DHT22;33069;51.970;5.892;2023-08-06T11:01:24;14.40;91.10
47338;DHT22;33069;51.970;5.892;2023-08-06T11:04:10;14.30;91.10
47338;DHT22;33069;51.970;5.892;2023-08-06T11:07:01;14.40;91.20
47338;DHT22;33069;51.970;5.892;2023-08-06T11:09:50;14.40;91.30
47338;DHT22;33069;51.970;5.892;2023-08-06T11:12:37;14.50;91.40
47338;DHT22;33069;51.970;5.892;2023-08-06T11:15:23;14.30;91.30
47338;DHT22;33069;51.970;5.892;2023-08-06T11:18:09;14.30;91.40
47338;DHT22;33069;51.970;5.892;2023-08-06T11:20:55;14.30;91.50
47338;DHT22;33069;51.970;5.892;2023-08-06T11:23:44;14.30;91.40
47338;DHT22;33069;51.970;5.892;2023-08-06T11:26:29;14.40;91.40
47338;DHT22;33069;51.970;5.892;2023-08-06T11:29:16;14.30;91.30
47338;DHT22;33069;51.970;5.892;2023-08-06T11:32:05;14.20;91.10
47338;DHT22;33069;51.970;5.892;2023-08-06T11:34:53;14.30;91.10
47338;DHT22;33069;51.970;5.892;2023-08-06T11:37:44;14.40;91.20
47338;DHT22;33069;51.970;5.892;2023-08-06T11:40:32;14.50;91.40
47338;DHT22;33069;51.970;5.892;2023-08-06T11:43:19;14.40;91.40
47338;DHT22;33069;51.970;5.892;2023-08-06T11:46:07;14.50;91.60
47338;DHT22;33069;51.970;5.892;2023-08-06T11:48:58;14.50;91.70
47338;DHT22;33069;51.970;5.892;2023-08-06T11:51:45;14.70;91.70
47338;DHT22;33069;51.970;5.892;2023-08-06T11:54:32;14.60;91.70
47338;DHT22;33069;51.970;5.892;2023-08-06T11:57:22;14.70;91.90
47338;DHT22;33069;51.970;5.892;2023-08-06T12:00:13;14.60;91.90
47338;DHT22;33069;51.970;5.892;2023-08-06T12:02:59;14.40;91.70
47338;DHT22;33069;51.970;5.892;2023-08-06T12:05:45;14.50;91.70
47338;DHT22;33069;51.970;5.892;2023-08-06T12:08:33;14.40;91.70
47338;DHT22;33069;51.970;5.892;2023-08-06T12:11:21;14.40;91.60
47338;DHT22;33069;51.970;5.892;2023-08-06T12:14:07;14.30;91.50
47338;DHT22;33069;51.970;5.892;2023-08-06T12:16:53;14.30;91.50
47338;DHT22;33069;51.970;5.892;2023-08-06T12:19:39;14.30;91.40
47338;DHT22;33069;51.970;5.892;2023-08-06T12:22:25;14.30;91.50
47338;DHT22;33069;51.970;5.892;2023-08-06T12:25:12;14.30;91.60
47338;DHT22;33069;51.970;5.892;2023-08-06T12:27:58;14.40;91.60
47338;DHT22;33069;51.970;5.892;2023-08-06T12:30:44;14.40;91.70
47338;DHT22;33069;51.970;5.892;2023-08-06T12:33:30;14.40;91.80
47338;DHT22;33069;51.970;5.892;2023-08-06T12:36:17;14.50;91.90
47338;DHT22;33069;51.970;5.892;2023-08-06T12:39:03;14.40;91.90
47338;DHT22;33069;51.970;5.892;2023-08-06T12:41:49;14.30;91.90
47338;DHT22;33069;51.970;5.892;2023-08-06T12:44:35;14.40;92.00
47338;DHT22;33069;51.970;5.892;2023-08-06T12:47:21;14.40;92.00
47338;DHT22;33069;51.970;5.892;2023-08-06T12:50:08;14.40;92.00
47338;DHT22;33069;51.970;5.892;2023-08-06T12:52:54;14.30;92.00
47338;DHT22;33069;51.970;5.892;2023-08-06T12:55:40;14.30;92.00
47338;DHT22;33069;51.970;5.892;2023-08-06T12:58:26;14.30;92.10
47338;DHT22;33069;51.970;5.892;2023-08-06T13:01:12;14.20;92.10
47338;DHT22;33069;51.970;5.892;2023-08-06T13:03:59;14.20;92.10
47338;DHT22;33069;51.970;5.892;2023-08-06T13:06:45;14.20;92.10
47338;DHT22;33069;51.970;5.892;2023-08-06T13:09:32;14.20;92.10
47338;DHT22;33069;51.970;5.892;2023-08-06T13:12:18;14.10;92.10
47338;DHT22;33069;51.970;5.892;2023-08-06T13:15:06;14.20;92.10
47338;DHT22;33069;51.970;5.892;2023-08-06T13:17:52;14.20;92.10
47338;DHT22;33069;51.970;5.892;2023-08-06T13:20:39;14.20;92.20
47338;DHT22;33069;51.970;5.892;2023-08-06T13:23:27;14.30;92.20
47338;DHT22;33069;51.970;5.892;2023-08-06T13:26:14;14.20;92.30
47338;DHT22;33069;51.970;5.892;2023-08-06T13:29:01;14.30;92.30
47338;DHT22;33069;51.970;5.892;2023-08-06T13:31:48;14.20;92.40
47338;DHT22;33069;51.970;5.892;2023-08-06T13:34:34;14.30;92.40
47338;DHT22;33069;51.970;5.892;2023-08-06T13:37:20;14.20;92.40
47338;DHT22;33069;51.970;5.892;2023-08-06T13:40:06;14.30;92.40
47338;DHT22;33069;51.970;5.892;2023-08-06T13:42:52;14.30;92.40
47338;DHT22;33069;51.970;5.892;2023-08-06T13:45:38;14.30;92.40
47338;DHT22;33069;51.970;5.892;2023-08-06T13:48:24;14.30;92.40
47338;DHT22;33069;51.970;5.892;2023-08-06T13:51:11;14.30;92.40
47338;DHT22;33069;51.970;5.892;2023-08-06T13:53:57;14.40;92.50
47338;DHT22;33069;51.970;5.892;2023-08-06T13:56:43;14.40;92.50
47338;DHT22;33069;51.970;5.892;2023-08-06T13:59:29;14.40;92.40
47338;DHT22;33069;51.970;5.892;2023-08-06T14:02:15;14.40;92.40
47338;DHT22;33069;51.970;5.892;2023-08-06T14:05:01;14.40;92.40
47338;DHT22;33069;51.970;5.892;2023-08-06T14:07:47;14.40;92.30
47338;DHT22;33069;51.970;5.892;2023-08-06T14:10:33;14.50;92.30
47338;DHT22;33069;51.970;5.892;2023-08-06T14:13:19;14.60;92.40
47338;DHT22;33069;51.970;5.892;2023-08-06T14:16:05;14.60;92.40
47338;DHT22;33069;51.970;5.892;2023-08-06T14:18:51;14.60;92.40
47338;DHT22;33069;51.970;5.892;2023-08-06T14:21:37;14.60;92.30
47338;DHT22;33069;51.970;5.892;2023-08-06T14:24:23;14.70;92.40
47338;DHT22;33069;51.970;5.892;2023-08-06T14:27:09;14.70;92.40
47338;DHT22;33069;51.970;5.892;2023-08-06T14:29:55;14.60;92.40
47338;DHT22;33069;51.970;5.892;2023-08-06T14:32:41;14.70;92.40
47338;DHT22;33069;51.970;5.892;2023-08-06T14:35:27;14.70;92.40
47338;DHT22;33069;51.970;5.892;2023-08-06T14:38:13;14.70;92.40
47338;DHT22;33069;51.970;5.892;2023-08-06T14:40:59;14.70;92.40
47338;DHT22;33069;51.970;5.892;2023-08-06T14:43:45;14.80;92.40
47338;DHT22;33069;51.970;5.892;2023-08-06T14:46:31;14.80;92.40
47338;DHT22;33069;51.970;5.892;2023-08-06T14:49:17;14.90;92.40
47338;DHT22;33069;51.970;5.892;2023-08-06T14:52:04;14.80;92.30
47338;DHT22;33069;51.970;5.892;2023-08-06T14:54:50;14.80;92.30
47338;DHT22;33069;51.970;5.892;2023-08-06T14:57:38;14.80;92.30
47338;DHT22;33069;51.970;5.892;2023-08-06T15:00:24;14.90;92.30
47338;DHT22;33069;51.970;5.892;2023-08-06T15:03:10;14.90;92.30
47338;DHT22;33069;51.970;5.892;2023-08-06T15:05:56;15.00;92.30
47338;DHT22;33069;51.970;5.892;2023-08-06T15:08:41;15.00;92.30
47338;DHT22;33069;51.970;5.892;2023-08-06T15:11:29;15.00;92.30
47338;DHT22;33069;51.970;5.892;2023-08-06T15:14:16;15.10;92.30
47338;DHT22;33069;51.970;5.892;2023-08-06T15:17:02;15.10;92.30
47338;DHT22;33069;51.970;5.892;2023-08-06T15:19:48;15.10;92.30
47338;DHT22;33069;51.970;5.892;2023-08-06T15:22:34;15.20;92.20
47338;DHT22;33069;51.970;5.892;2023-08-06T15:25:20;15.20;92.30
47338;DHT22;33069;51.970;5.892;2023-08-06T15:28:06;15.20;92.20
47338;DHT22;33069;51.970;5.892;2023-08-06T15:30:53;15.30;92.20
47338;DHT22;33069;51.970;5.892;2023-08-06T15:33:40;15.20;92.10
47338;DHT22;33069;51.970;5.892;2023-08-06T15:36:26;15.30;92.10
47338;DHT22;33069;51.970;5.892;2023-08-06T15:39:12;15.30;92.10
47338;DHT22;33069;51.970;5.892;2023-08-06T15:41:58;15.50;92.10
47338;DHT22;33069;51.970;5.892;2023-08-06T15:44:44;15.50;92.10
47338;DHT22;33069;51.970;5.892;2023-08-06T15:47:30;15.50;92.00
47338;DHT22;33069;51.970;5.892;2023-08-06T15:50:16;15.60;92.10
47338;DHT22;33069;51.970;5.892;2023-08-06T15:53:02;15.50;91.90
47338;DHT22;33069;51.970;5.892;2023-08-06T15:55:48;15.50;91.90
47338;DHT22;33069;51.970;5.892;2023-08-06T15:58:34;15.40;91.90
47338;DHT22;33069;51.970;5.892;2023-08-06T16:01:20;15.40;91.80
47338;DHT22;33069;51.970;5.892;2023-08-06T16:04:06;15.20;91.70
47338;DHT22;33069;51.970;5.892;2023-08-06T16:06:52;15.10;91.70
47338;DHT22;33069;51.970;5.892;2023-08-06T16:09:38;15.10;91.80
47338;DHT22;33069;51.970;5.892;2023-08-06T16:12:24;14.80;91.40
47338;DHT22;33069;51.970;5.892;2023-08-06T16:15:10;14.90;91.20
47338;DHT22;33069;51.970;5.892;2023-08-06T16:17:58;14.90;91.10
47338;DHT22;33069;51.970;5.892;2023-08-06T16:20:45;15.00;90.80
47338;DHT22;33069;51.970;5.892;2023-08-06T16:23:31;14.90;90.50
47338;DHT22;33069;51.970;5.892;2023-08-06T16:26:16;15.00;90.40
47338;DHT22;33069;51.970;5.892;2023-08-06T16:29:03;15.00;90.00
47338;DHT22;33069;51.970;5.892;2023-08-06T16:31:49;15.00;90.00
47338;DHT22;33069;51.970;5.892;2023-08-06T16:34:35;14.90;89.30
47338;DHT22;33069;51.970;5.892;2023-08-06T16:37:21;15.00;89.00
47338;DHT22;33069;51.970;5.892;2023-08-06T16:40:07;15.00;88.90
47338;DHT22;33069;51.970;5.892;2023-08-06T16:42:55;15.00;88.70
47338;DHT22;33069;51.970;5.892;2023-08-06T16:45:40;14.90;88.40
47338;DHT22;33069;51.970;5.892;2023-08-06T16:48:26;15.00;88.00
47338;DHT22;33069;51.970;5.892;2023-08-06T16:51:12;15.00;87.90
47338;DHT22;33069;51.970;5.892;2023-08-06T16:54:01;14.90;87.40
47338;DHT22;33069;51.970;5.892;2023-08-06T16:56:47;15.00;87.40
47338;DHT22;33069;51.970;5.892;2023-08-06T16:59:33;15.00;87.30
47338;DHT22;33069;51.970;5.892;2023-08-06T17:02:19;15.00;86.70
47338;DHT22;33069;51.970;5.892;2023-08-06T17:05:05;15.00;85.80
47338;DHT22;33069;51.970;5.892;2023-08-06T17:07:51;15.00;86.40
47338;DHT22;33069;51.970;5.892;2023-08-06T17:10:38;14.90;86.60
47338;DHT22;33069;51.970;5.892;2023-08-06T17:13:27;14.80;86.80
47338;DHT22;33069;51.970;5.892;2023-08-06T17:16:13;14.70;86.50
47338;DHT22;33069;51.970;5.892;2023-08-06T17:18:59;14.80;87.00
47338;DHT22;33069;51.970;5.892;2023-08-06T17:21:45;14.70;86.90
47338;DHT22;33069;51.970;5.892;2023-08-06T17:24:31;14.70;87.30
47338;DHT22;33069;51.970;5.892;2023-08-06T17:27:17;14.60;87.80
47338;DHT22;33069;51.970;5.892;2023-08-06T17:30:03;14.40;88.00
47338;DHT22;33069;51.970;5.892;2023-08-06T17:32:49;14.40;88.70
47338;DHT22;33069;51.970;5.892;2023-08-06T17:35:35;14.30;88.60
47338;DHT22;33069;51.970;5.892;2023-08-06T17:38:21;14.30;88.90
47338;DHT22;33069;51.970;5.892;2023-08-06T17:41:07;14.40;89.50